Terminal Aerodrome Forecast
Issued by NWS Sioux Falls, SD

Home | Current Version | Previous Version | Text Only | Print | Product List | Glossary Off
Versions: 1 2 3 4 5 6 7 8 9 10 11 12 13 14 15 16 17 18 19

893
FTUS43 KFSD 250540
TAFHON
TAF
KHON 250540Z 2506/2606 36011G16KT P6SM OVC015
     FM251400 36014G21KT P6SM OVC015
     FM251800 01017G24KT P6SM SHRA OVC020
     FM252200 36018G25KT 6SM SHRA OVC015
     FM260200 35016G24KT P6SM OVC008=

USA.gov is the U.S. government's official web portal to all federal, state and local government web resources and services.